createdAt,value
2018-09-13T00:00:50.221Z,20.54
2018-09-13T00:03:17.092Z,20.53
2018-09-13T00:05:44.132Z,20.54
2018-09-13T00:08:11.028Z,20.56
2018-09-13T00:10:37.988Z,20.59
2018-09-13T00:13:04.938Z,20.57
2018-09-13T00:15:31.884Z,20.57
2018-09-13T00:17:58.839Z,20.56
2018-09-13T00:20:25.815Z,20.55
2018-09-13T00:22:52.841Z,20.51
2018-09-13T00:25:19.718Z,20.51
2018-09-13T00:27:46.667Z,20.45
2018-09-13T00:30:13.753Z,20.51
2018-09-13T00:32:40.690Z,20.44
2018-09-13T00:35:07.664Z,20.42
2018-09-13T00:37:34.540Z,20.38
2018-09-13T00:40:01.471Z,20.28
2018-09-13T00:42:28.422Z,20.34
2018-09-13T00:44:55.378Z,20.24
2018-09-13T00:47:22.338Z,20.18
2018-09-13T00:49:49.308Z,20.15
2018-09-13T00:52:16.243Z,20.08
2018-09-13T00:54:43.203Z,20.04
2018-09-13T00:57:10.077Z,20.05
2018-09-13T00:59:37.062Z,20.02
2018-09-13T01:02:03.987Z,20.10
2018-09-13T01:04:31.079Z,20.24
2018-09-13T01:06:59.015Z,20.13
2018-09-13T01:09:25.900Z,19.97
2018-09-13T01:11:52.831Z,19.98
2018-09-13T01:14:19.783Z,19.92
2018-09-13T01:16:46.763Z,19.84
2018-09-13T01:19:13.631Z,19.80
2018-09-13T01:21:40.553Z,19.80
2018-09-13T01:24:07.540Z,19.92
2018-09-13T01:26:34.507Z,19.86
2018-09-13T01:29:01.475Z,19.83
2018-09-13T01:31:28.355Z,19.84
2018-09-13T01:33:55.259Z,19.77
2018-09-13T01:36:22.232Z,19.71
2018-09-13T01:38:49.156Z,19.73
2018-09-13T01:41:16.031Z,19.81
2018-09-13T01:43:42.994Z,19.72
2018-09-13T01:46:09.918Z,19.67
2018-09-13T01:48:36.935Z,19.66
2018-09-13T01:51:03.951Z,19.64
2018-09-13T01:53:30.903Z,19.68
2018-09-13T01:55:57.889Z,19.52
2018-09-13T01:58:24.823Z,19.53
2018-09-13T02:00:51.767Z,19.42
2018-09-13T02:03:18.731Z,19.52
2018-09-13T02:05:45.690Z,19.46
2018-09-13T02:08:12.646Z,19.45
2018-09-13T02:10:39.598Z,19.54
2018-09-13T02:13:06.595Z,19.45
2018-09-13T02:15:33.579Z,19.47
2018-09-13T02:18:00.471Z,19.66
2018-09-13T02:20:27.531Z,19.46
2018-09-13T02:22:54.507Z,19.53
2018-09-13T02:25:21.371Z,19.45
2018-09-13T02:27:48.327Z,19.52
2018-09-13T02:30:15.276Z,19.48
2018-09-13T02:32:42.240Z,19.47
2018-09-13T02:35:09.184Z,19.37
2018-09-13T02:37:36.071Z,19.27
2018-09-13T02:40:03.075Z,19.23
2018-09-13T02:42:30.048Z,19.60
2018-09-13T02:44:57.091Z,19.38
2018-09-13T02:47:24.085Z,19.37
2018-09-13T02:49:51.092Z,19.22
2018-09-13T02:52:17.998Z,19.21
2018-09-13T02:54:44.947Z,19.13
2018-09-13T02:57:11.959Z,18.97
2018-09-13T02:59:38.843Z,19.07
2018-09-13T03:02:05.815Z,19.08
2018-09-13T03:04:32.779Z,18.86
2018-09-13T03:06:59.751Z,18.72
2018-09-13T03:09:26.700Z,18.56
2018-09-13T03:11:53.687Z,18.53
2018-09-13T03:14:20.605Z,18.57
2018-09-13T03:16:47.568Z,18.60
2018-09-13T03:19:14.528Z,18.55
2018-09-13T03:21:41.403Z,18.51
2018-09-13T03:24:08.335Z,18.40
2018-09-13T03:26:35.308Z,18.20
2018-09-13T03:29:02.258Z,18.09
2018-09-13T03:31:29.306Z,18.00
2018-09-13T03:33:56.187Z,17.89
2018-09-13T03:36:23.119Z,17.80
2018-09-13T03:38:50.080Z,18.02
2018-09-13T03:41:17.063Z,17.88
2018-09-13T03:43:44.023Z,17.82
2018-09-13T03:46:10.951Z,17.77
2018-09-13T03:48:37.939Z,17.96
2018-09-13T03:51:04.903Z,17.85
2018-09-13T03:53:31.778Z,17.71
2018-09-13T03:55:58.712Z,17.77
2018-09-13T03:58:26.770Z,17.85
2018-09-13T04:00:53.730Z,18.01
2018-09-13T04:03:20.703Z,17.80
2018-09-13T04:05:47.707Z,17.72
2018-09-13T04:08:15.604Z,17.73
2018-09-13T04:10:42.595Z,17.61
2018-09-13T04:13:09.620Z,17.61
2018-09-13T04:15:36.585Z,17.55
2018-09-13T04:18:03.593Z,17.45
2018-09-13T04:20:30.517Z,17.44
2018-09-13T04:22:57.552Z,17.49
2018-09-13T04:25:24.583Z,17.41
2018-09-13T04:27:51.499Z,17.34
2018-09-13T04:30:19.455Z,17.30
2018-09-13T04:32:46.420Z,17.35
2018-09-13T04:35:13.394Z,17.31
2018-09-13T04:37:40.339Z,17.18
2018-09-13T04:40:07.303Z,17.21
2018-09-13T04:42:34.343Z,17.16
2018-09-13T04:45:01.295Z,17.19
2018-09-13T04:47:28.276Z,17.12
2018-09-13T04:49:55.231Z,17.11
2018-09-13T04:52:22.188Z,17.07
2018-09-13T04:54:49.131Z,17.06
2018-09-13T04:57:16.180Z,17.07
2018-09-13T04:59:43.060Z,17.06
2018-09-13T05:02:10.004Z,17.08
2018-09-13T05:04:36.976Z,17.00
2018-09-13T05:07:04.144Z,17.04
2018-09-13T05:09:31.103Z,17.04
2018-09-13T05:11:58.067Z,17.04
2018-09-13T05:14:25.245Z,17.06
2018-09-13T05:16:52.156Z,17.14
2018-09-13T05:19:19.115Z,17.20
2018-09-13T05:21:46.089Z,17.23
2018-09-13T05:24:13.037Z,17.21
2018-09-13T05:26:40.008Z,17.24
2018-09-13T05:29:06.951Z,17.20
2018-09-13T05:31:33.942Z,17.13
2018-09-13T05:34:00.875Z,17.14
2018-09-13T05:36:27.831Z,17.30
2018-09-13T05:38:54.794Z,17.14
2018-09-13T05:41:21.735Z,17.23
2018-09-13T05:43:48.616Z,17.25
2018-09-13T05:46:15.559Z,17.35
2018-09-13T05:48:42.519Z,17.26
2018-09-13T05:51:09.573Z,17.28
2018-09-13T05:53:38.419Z,17.36
2018-09-13T05:56:05.355Z,17.41
2018-09-13T05:58:32.323Z,17.59
2018-09-13T06:00:59.291Z,17.71
2018-09-13T06:03:26.263Z,17.81
2018-09-13T06:05:53.254Z,17.96
2018-09-13T06:08:20.220Z,18.06
2018-09-13T06:10:47.820Z,18.09
2018-09-13T06:13:14.752Z,18.15
2018-09-13T06:15:42.080Z,18.20
2018-09-13T06:18:09.054Z,18.36
2018-09-13T06:20:36.099Z,18.41
2018-09-13T06:23:02.982Z,18.42
2018-09-13T06:25:29.935Z,18.37
2018-09-13T06:27:57.805Z,18.50
2018-09-13T06:30:24.775Z,18.40
2018-09-13T06:32:51.723Z,18.42
2018-09-13T06:35:18.704Z,18.43
2018-09-13T06:37:45.661Z,18.47
2018-09-13T06:40:12.532Z,18.58
2018-09-13T06:42:39.475Z,18.54
2018-09-13T06:45:07.323Z,18.50
2018-09-13T06:47:34.576Z,18.43
2018-09-13T06:50:01.483Z,18.38
2018-09-13T06:52:28.448Z,18.31
2018-09-13T06:54:55.403Z,18.19
2018-09-13T06:57:22.399Z,18.30
2018-09-13T06:59:49.285Z,18.29
2018-09-13T07:02:16.263Z,18.30
2018-09-13T07:04:43.127Z,18.30
2018-09-13T07:07:10.083Z,18.43
2018-09-13T07:09:37.031Z,18.47
2018-09-13T07:12:03.899Z,18.49
2018-09-13T07:14:30.823Z,18.42
2018-09-13T07:16:57.968Z,18.60
2018-09-13T07:19:24.970Z,18.69
2018-09-13T07:21:51.937Z,18.61
2018-09-13T07:24:18.815Z,18.60
2018-09-13T07:26:45.735Z,18.74
2018-09-13T07:29:12.685Z,18.68
2018-09-13T07:31:39.554Z,18.76
2018-09-13T07:34:06.676Z,18.77
2018-09-13T07:36:33.663Z,18.83
2018-09-13T07:39:00.543Z,18.80
2018-09-13T07:41:27.465Z,18.77
2018-09-13T07:43:54.438Z,18.82
2018-09-13T07:46:21.408Z,18.81
2018-09-13T07:48:48.344Z,18.93
2018-09-13T07:51:15.341Z,19.02
2018-09-13T07:53:42.654Z,19.04
2018-09-13T07:56:09.568Z,19.06
2018-09-13T07:58:36.467Z,19.23
2018-09-13T08:01:03.499Z,19.41
2018-09-13T08:03:30.398Z,19.47
2018-09-13T08:05:57.361Z,19.45
2018-09-13T08:08:24.319Z,19.13
2018-09-13T08:10:51.287Z,19.34
2018-09-13T08:13:18.237Z,19.37
2018-09-13T08:15:45.246Z,19.55
2018-09-13T08:18:12.152Z,19.50
2018-09-13T08:20:39.087Z,19.47
2018-09-13T08:23:06.331Z,19.49
2018-09-13T08:25:33.334Z,19.64
2018-09-13T08:28:00.559Z,19.73
2018-09-13T08:30:27.579Z,19.65
2018-09-13T08:32:54.504Z,19.61
2018-09-13T08:35:21.456Z,19.68
2018-09-13T08:37:48.416Z,19.53
2018-09-13T08:40:15.444Z,19.65
2018-09-13T08:42:42.315Z,19.72
2018-09-13T08:45:09.338Z,19.81
2018-09-13T08:47:36.240Z,19.76
2018-09-13T08:50:03.232Z,19.89
2018-09-13T08:52:30.164Z,19.97
2018-09-13T08:54:57.120Z,20.13
2018-09-13T08:57:24.092Z,20.29
2018-09-13T08:59:50.964Z,20.25
2018-09-13T09:02:17.889Z,20.33
2018-09-13T09:04:45.879Z,20.47
2018-09-13T09:07:12.771Z,20.78
2018-09-13T09:09:39.686Z,20.73
2018-09-13T09:12:06.563Z,20.65
2018-09-13T09:14:33.501Z,20.46
2018-09-13T09:17:00.455Z,20.41
2018-09-13T09:19:28.736Z,20.48
2018-09-13T09:21:55.628Z,20.44
2018-09-13T09:24:22.575Z,20.43
2018-09-13T09:26:49.531Z,20.39
2018-09-13T09:29:16.538Z,20.63
2018-09-13T09:31:43.495Z,20.73
2018-09-13T09:34:10.396Z,20.81
2018-09-13T09:36:37.339Z,20.80
2018-09-13T09:39:07.811Z,21.10
2018-09-13T09:41:34.767Z,21.20
2018-09-13T09:44:01.691Z,21.09
2018-09-13T09:46:28.571Z,21.22
2018-09-13T09:48:55.504Z,21.16
2018-09-13T09:51:22.460Z,21.54
2018-09-13T09:53:49.447Z,21.50
2018-09-13T09:56:16.432Z,21.62
2018-09-13T09:58:43.375Z,21.58
2018-09-13T10:01:15.947Z,21.61
2018-09-13T10:03:43.022Z,21.67
2018-09-13T10:06:09.747Z,22.04
2018-09-13T10:08:36.947Z,22.08
2018-09-13T10:11:03.826Z,22.04
2018-09-13T10:13:30.707Z,22.20
2018-09-13T10:16:03.602Z,22.05
2018-09-13T10:18:36.143Z,21.85
2018-09-13T10:21:08.863Z,21.75
2018-09-13T10:23:41.664Z,22.14
2018-09-13T10:26:14.248Z,22.18
2018-09-13T10:28:46.954Z,22.27
2018-09-13T10:31:19.543Z,22.16
2018-09-13T10:33:55.806Z,22.14
2018-09-13T10:36:28.680Z,22.13
2018-09-13T10:39:01.263Z,22.35
2018-09-13T10:41:33.811Z,22.90
2018-09-13T10:44:06.608Z,22.46
2018-09-13T10:46:33.562Z,22.34
2018-09-13T10:49:07.270Z,21.62
2018-09-13T10:51:39.956Z,21.47
2018-09-13T10:54:13.707Z,21.36
2018-09-13T10:56:41.027Z,21.05
2018-09-13T10:59:08.077Z,20.86
2018-09-13T11:01:34.916Z,20.83
2018-09-13T11:04:02.002Z,20.75
2018-09-13T11:06:28.892Z,20.82
2018-09-13T11:08:55.860Z,20.59
2018-09-13T11:11:22.771Z,20.63
2018-09-13T11:13:52.139Z,20.64
2018-09-13T11:16:19.556Z,20.73
2018-09-13T11:18:46.544Z,20.61
2018-09-13T11:21:13.517Z,20.58
2018-09-13T11:23:40.394Z,20.61
2018-09-13T11:26:07.392Z,20.50
2018-09-13T11:28:34.380Z,20.66
2018-09-13T11:31:01.915Z,20.59
2018-09-13T11:33:29.010Z,20.52
2018-09-13T11:35:56.091Z,20.54
2018-09-13T11:38:23.035Z,20.49
2018-09-13T11:40:50.149Z,20.48
2018-09-13T11:43:16.931Z,20.49
2018-09-13T11:45:43.803Z,20.36
2018-09-13T11:48:10.742Z,20.29
2018-09-13T11:50:37.716Z,20.16
2018-09-13T11:53:04.878Z,20.26
2018-09-13T11:55:31.820Z,20.40
2018-09-13T11:57:58.791Z,20.56
2018-09-13T12:00:25.751Z,20.81
2018-09-13T12:02:52.708Z,21.18
2018-09-13T12:05:19.663Z,21.57
2018-09-13T12:07:46.559Z,21.80
2018-09-13T12:10:13.486Z,21.62
2018-09-13T12:12:41.782Z,21.76
2018-09-13T12:15:09.095Z,21.64
2018-09-13T12:17:36.084Z,21.46
2018-09-13T12:20:03.176Z,21.53
2018-09-13T12:22:30.170Z,21.25
2018-09-13T12:24:57.053Z,21.11
2018-09-13T12:27:24.035Z,21.37
2018-09-13T12:29:50.904Z,21.12
2018-09-13T12:32:17.864Z,21.18
2018-09-13T12:34:44.795Z,21.41
2018-09-13T12:37:11.744Z,21.54
2018-09-13T12:39:38.767Z,21.45
2018-09-13T12:42:05.665Z,21.48
2018-09-13T12:44:32.636Z,21.31
2018-09-13T12:46:59.531Z,21.50
2018-09-13T12:49:26.443Z,21.86
2018-09-13T12:51:53.380Z,21.89
2018-09-13T12:54:20.335Z,21.81
2018-09-13T12:56:47.450Z,22.05
2018-09-13T12:59:14.252Z,22.34
2018-09-13T13:01:41.211Z,22.19
2018-09-13T13:04:08.092Z,21.82
2018-09-13T13:06:35.040Z,21.97
2018-09-13T13:09:02.291Z,21.91
2018-09-13T13:11:29.698Z,21.87
2018-09-13T13:13:56.660Z,21.97
2018-09-13T13:16:23.572Z,21.86
2018-09-13T13:18:50.544Z,21.79
2018-09-13T13:21:17.543Z,21.73
2018-09-13T13:23:44.487Z,21.87
2018-09-13T13:26:11.395Z,22.03
2018-09-13T13:28:38.280Z,22.06
2018-09-13T13:31:05.285Z,22.27
2018-09-13T13:33:32.240Z,22.45
2018-09-13T13:36:00.025Z,22.44
2018-09-13T13:38:26.948Z,22.50
2018-09-13T13:40:53.942Z,22.56
2018-09-13T13:43:20.984Z,22.17
2018-09-13T13:45:48.020Z,22.07
2018-09-13T13:48:15.001Z,22.24
2018-09-13T13:50:42.710Z,22.22
2018-09-13T13:53:10.713Z,22.19
2018-09-13T13:55:37.785Z,22.25
2018-09-13T13:58:05.460Z,22.13
2018-09-13T14:00:32.400Z,21.84
2018-09-13T14:02:59.460Z,21.76
2018-09-13T14:05:26.357Z,21.76
2018-09-13T14:07:53.310Z,21.62
2018-09-13T14:10:20.236Z,21.57
2018-09-13T14:12:47.135Z,21.67
2018-09-13T14:15:14.207Z,21.93
2018-09-13T14:17:41.459Z,21.91
2018-09-13T14:20:08.347Z,21.93
2018-09-13T14:22:35.228Z,22.21
2018-09-13T14:25:02.184Z,22.06
2018-09-13T14:27:29.671Z,21.87
2018-09-13T14:29:57.046Z,22.01
2018-09-13T14:32:23.892Z,22.15
2018-09-13T14:34:50.803Z,22.30
2018-09-13T14:37:17.812Z,22.55
2018-09-13T14:39:44.775Z,22.59
2018-09-13T14:42:11.739Z,22.65
2018-09-13T14:44:38.660Z,22.65
2018-09-13T14:47:05.619Z,22.80
2018-09-13T14:49:32.557Z,22.84
2018-09-13T14:51:59.431Z,22.62
2018-09-13T14:54:26.400Z,22.53
2018-09-13T14:56:53.401Z,22.58
2018-09-13T14:59:20.328Z,22.65
2018-09-13T15:01:47.288Z,22.79
2018-09-13T15:04:14.240Z,22.49
2018-09-13T15:06:41.211Z,22.48
2018-09-13T15:09:09.533Z,22.44
2018-09-13T15:11:36.503Z,22.39
2018-09-13T15:14:03.443Z,22.42
2018-09-13T15:16:30.361Z,22.35
2018-09-13T15:18:57.336Z,22.43
2018-09-13T15:21:24.268Z,22.30
2018-09-13T15:23:51.240Z,22.32
2018-09-13T15:26:18.124Z,22.20
2018-09-13T15:28:45.144Z,22.35
2018-09-13T15:31:12.194Z,22.37
2018-09-13T15:33:39.260Z,22.25
2018-09-13T15:36:06.227Z,22.30
2018-09-13T15:38:33.195Z,22.34
2018-09-13T15:41:00.219Z,22.26
2018-09-13T15:43:27.192Z,22.17
2018-09-13T15:45:54.188Z,22.12
2018-09-13T15:48:21.079Z,22.02
2018-09-13T15:50:48.199Z,21.93
2018-09-13T15:53:15.125Z,21.80
2018-09-13T15:55:42.096Z,22.35
2018-09-13T15:58:09.044Z,21.89
2018-09-13T16:00:35.986Z,21.98
2018-09-13T16:03:02.955Z,21.79
2018-09-13T16:05:29.941Z,22.11
2018-09-13T16:07:56.911Z,21.76
2018-09-13T16:10:23.828Z,21.31
2018-09-13T16:12:50.892Z,21.40
2018-09-13T16:15:17.731Z,21.31
2018-09-13T16:17:45.611Z,20.96
2018-09-13T16:20:12.496Z,20.85
2018-09-13T16:22:39.413Z,20.68
2018-09-13T16:25:06.391Z,20.70
2018-09-13T16:27:33.339Z,20.81
2018-09-13T16:30:00.287Z,20.87
2018-09-13T16:32:27.246Z,20.48
2018-09-13T16:34:55.230Z,20.51
2018-09-13T16:37:27.747Z,20.33
2018-09-13T16:40:00.992Z,20.54
2018-09-13T16:42:41.855Z,20.61
2018-09-13T16:45:09.224Z,20.81
2018-09-13T16:47:42.116Z,20.78
2018-09-13T16:50:08.955Z,20.68
2018-09-13T16:52:35.883Z,20.71
2018-09-13T16:55:02.836Z,20.78
2018-09-13T16:57:29.768Z,20.83
2018-09-13T16:59:56.647Z,20.81
2018-09-13T17:02:23.622Z,21.15
2018-09-13T17:04:50.604Z,20.80
2018-09-13T17:07:17.786Z,20.55
2018-09-13T17:09:44.891Z,21.17
2018-09-13T17:12:11.851Z,21.29
2018-09-13T17:14:38.798Z,20.81
2018-09-13T17:17:05.783Z,20.63
2018-09-13T17:19:32.723Z,20.62
2018-09-13T17:21:59.802Z,20.50
2018-09-13T17:24:26.747Z,20.35
2018-09-13T17:26:53.700Z,20.28
2018-09-13T17:29:20.563Z,20.08
2018-09-13T17:31:47.529Z,20.12
2018-09-13T17:34:14.569Z,20.09
2018-09-13T17:36:41.556Z,20.01
2018-09-13T17:39:09.795Z,20.25
2018-09-13T17:41:36.819Z,20.26
2018-09-13T17:44:03.784Z,20.20
2018-09-13T17:46:30.707Z,20.81
2018-09-13T17:48:57.681Z,20.32
2018-09-13T17:51:24.634Z,20.12
2018-09-13T17:53:51.503Z,19.89
2018-09-13T17:56:18.451Z,19.91
2018-09-13T17:58:45.408Z,20.06
2018-09-13T18:01:12.339Z,20.00
2018-09-13T18:03:39.386Z,20.01
2018-09-13T18:06:06.254Z,20.41
2018-09-13T18:08:33.224Z,20.05
2018-09-13T18:11:00.233Z,20.47
2018-09-13T18:13:27.113Z,19.94
2018-09-13T18:15:54.078Z,19.79
2018-09-13T18:18:21.043Z,19.83
2018-09-13T18:20:47.976Z,19.78
2018-09-13T18:23:14.883Z,19.77
2018-09-13T18:25:41.836Z,19.79
2018-09-13T18:28:09.807Z,19.54
2018-09-13T18:30:36.743Z,19.36
2018-09-13T18:33:03.707Z,19.33
2018-09-13T18:35:30.611Z,19.08
2018-09-13T18:37:57.599Z,18.83
2018-09-13T18:40:24.596Z,18.93
2018-09-13T18:42:51.566Z,18.68
2018-09-13T18:45:18.557Z,18.79
2018-09-13T18:47:45.471Z,18.92
2018-09-13T18:50:12.357Z,19.17
2018-09-13T18:52:39.333Z,19.20
2018-09-13T18:55:06.528Z,19.69
2018-09-13T18:57:33.665Z,19.34
2018-09-13T19:00:00.733Z,19.28
2018-09-13T19:02:27.756Z,19.24
2018-09-13T19:04:54.688Z,19.29
2018-09-13T19:07:22.116Z,19.62
2018-09-13T19:09:49.184Z,19.31
2018-09-13T19:12:16.196Z,19.20
2018-09-13T19:14:43.692Z,19.12
2018-09-13T19:17:11.183Z,19.58
2018-09-13T19:19:38.108Z,19.16
2018-09-13T19:22:06.177Z,18.94
2018-09-13T19:24:33.241Z,18.85
2018-09-13T19:27:01.038Z,19.23
2018-09-13T19:29:28.203Z,18.81
2018-09-13T19:31:55.179Z,18.69
2018-09-13T19:34:23.116Z,18.57
2018-09-13T19:36:50.153Z,18.42
2018-09-13T19:39:17.239Z,18.62
2018-09-13T19:41:44.254Z,18.35
2018-09-13T19:44:11.420Z,18.32
2018-09-13T19:46:38.803Z,18.33
2018-09-13T19:49:06.619Z,18.36
2018-09-13T19:51:33.751Z,18.44
2018-09-13T19:54:01.035Z,18.39
2018-09-13T19:56:28.174Z,18.39
2018-09-13T19:58:55.412Z,18.94
2018-09-13T20:01:22.396Z,18.64
2018-09-13T20:03:49.271Z,19.29
2018-09-13T20:06:16.218Z,18.78
2018-09-13T20:08:43.223Z,18.64
2018-09-13T20:11:10.216Z,18.53
2018-09-13T20:13:37.191Z,18.54
2018-09-13T20:16:04.271Z,18.63
2018-09-13T20:18:31.384Z,19.23
2018-09-13T20:20:58.431Z,18.82
2018-09-13T20:23:25.488Z,18.61
2018-09-13T20:25:52.556Z,18.59
2018-09-13T20:28:19.564Z,18.47
2018-09-13T20:30:46.512Z,18.48
2018-09-13T20:33:13.464Z,18.44
2018-09-13T20:35:40.385Z,18.43
2018-09-13T20:38:07.484Z,18.42
2018-09-13T20:40:34.407Z,18.35
2018-09-13T20:43:01.366Z,18.77
2018-09-13T20:45:28.242Z,18.40
2018-09-13T20:47:55.177Z,18.25
2018-09-13T20:50:22.159Z,18.09
2018-09-13T20:52:49.099Z,18.05
2018-09-13T20:55:16.108Z,18.05
2018-09-13T20:57:43.008Z,17.98
2018-09-13T21:00:14.138Z,18.00
2018-09-13T21:02:41.012Z,17.94
2018-09-13T21:05:07.985Z,17.87
2018-09-13T21:07:34.839Z,17.83
2018-09-13T21:10:01.807Z,17.89
2018-09-13T21:12:28.762Z,18.00
2018-09-13T21:14:55.687Z,18.06
2018-09-13T21:17:22.560Z,18.12
2018-09-13T21:19:49.503Z,18.12
2018-09-13T21:22:16.462Z,18.06
2018-09-13T21:24:43.334Z,18.17
2018-09-13T21:27:10.200Z,18.22
2018-09-13T21:29:37.204Z,18.50
2018-09-13T21:32:04.111Z,18.63
2018-09-13T21:34:31.188Z,18.62
2018-09-13T21:36:58.124Z,18.63
2018-09-13T21:39:25.036Z,18.74
2018-09-13T21:41:51.982Z,18.65
2018-09-13T21:44:18.955Z,18.50
2018-09-13T21:46:45.831Z,18.53
2018-09-13T21:49:12.718Z,18.45
2018-09-13T21:51:39.695Z,18.39
2018-09-13T21:54:06.671Z,18.38
2018-09-13T21:56:33.572Z,18.45
2018-09-13T21:59:00.637Z,18.47
2018-09-13T22:01:27.659Z,18.38
2018-09-13T22:03:54.533Z,18.41
2018-09-13T22:06:21.490Z,18.38
2018-09-13T22:08:48.448Z,18.37
2018-09-13T22:11:15.501Z,18.37
2018-09-13T22:13:42.403Z,18.28
2018-09-13T22:16:09.260Z,18.37
2018-09-13T22:18:37.239Z,18.29
2018-09-13T22:21:04.163Z,18.85
2018-09-13T22:23:31.024Z,18.46
2018-09-13T22:25:57.967Z,18.58
2018-09-13T22:28:24.926Z,18.70
2018-09-13T22:30:51.980Z,18.74
2018-09-13T22:33:18.843Z,18.81
2018-09-13T22:35:45.795Z,19.54
2018-09-13T22:38:12.793Z,19.09
2018-09-13T22:40:39.724Z,19.08
2018-09-13T22:43:06.716Z,18.82
2018-09-13T22:45:33.681Z,18.69
2018-09-13T22:48:00.556Z,18.86
2018-09-13T22:50:27.452Z,19.43
2018-09-13T22:52:54.411Z,18.88
2018-09-13T22:55:21.293Z,18.58
2018-09-13T22:57:48.255Z,18.35
2018-09-13T23:00:15.222Z,18.27
2018-09-13T23:02:47.656Z,18.08
2018-09-13T23:05:15.076Z,17.80
2018-09-13T23:07:41.919Z,17.70
2018-09-13T23:10:08.865Z,17.70
2018-09-13T23:12:35.836Z,17.64
2018-09-13T23:15:02.834Z,17.62
2018-09-13T23:17:29.814Z,17.42
2018-09-13T23:19:56.619Z,17.49
2018-09-13T23:22:23.565Z,17.40
2018-09-13T23:24:50.533Z,17.39
2018-09-13T23:27:17.482Z,17.37
2018-09-13T23:29:44.424Z,17.29
2018-09-13T23:32:11.384Z,17.30
2018-09-13T23:34:38.364Z,17.31
2018-09-13T23:37:05.340Z,17.28
2018-09-13T23:39:32.428Z,17.40
2018-09-13T23:41:59.236Z,17.24
2018-09-13T23:44:26.187Z,17.31
2018-09-13T23:46:53.116Z,17.29
2018-09-13T23:49:20.102Z,17.27
2018-09-13T23:51:47.024Z,17.16
2018-09-13T23:54:14.011Z,17.34
2018-09-13T23:56:40.930Z,17.33
2018-09-13T23:59:07.900Z,17.30
